createdAt,value
2023-03-16T15:40:43.590Z,61
2023-03-16T15:44:08.822Z,62
2023-03-16T15:47:33.957Z,58
2023-03-16T15:50:59.133Z,59
2023-03-16T15:54:24.255Z,60
2023-03-16T15:57:49.437Z,61
2023-03-16T16:01:14.658Z,60
2023-03-16T16:04:39.857Z,60
2023-03-16T16:08:04.928Z,61
2023-03-16T16:11:30.179Z,60
2023-03-16T16:14:55.488Z,60
2023-03-16T16:18:21.860Z,61
2023-03-16T16:21:45.874Z,60
2023-03-16T16:25:11.076Z,60
2023-03-16T16:28:36.237Z,60
2023-03-16T16:32:02.097Z,60
2023-03-16T16:35:27.614Z,61
2023-03-16T16:38:52.375Z,62
2023-03-16T16:42:17.687Z,62
2023-03-16T16:45:42.735Z,61
2023-03-16T16:49:08.001Z,61
2023-03-16T16:52:33.160Z,63
2023-03-16T16:55:58.356Z,61
2023-03-16T16:59:23.560Z,62
2023-03-16T17:02:48.757Z,62
2023-03-16T17:06:14.025Z,62
2023-03-16T17:09:39.254Z,62
2023-03-16T17:13:04.455Z,62
2023-03-16T17:16:30.137Z,63
2023-03-16T17:19:55.306Z,63
2023-03-16T17:23:20.517Z,64
2023-03-16T17:26:45.710Z,63
2023-03-16T17:30:10.988Z,64
2023-03-16T17:33:36.188Z,64
2023-03-16T17:37:01.384Z,63
2023-03-16T17:40:26.649Z,63
2023-03-16T17:43:51.787Z,64
2023-03-16T17:47:16.976Z,64
2023-03-16T17:50:42.169Z,63
2023-03-16T17:54:07.381Z,63
2023-03-16T17:57:34.725Z,64
2023-03-16T18:00:59.908Z,64
2023-03-16T18:04:26.642Z,64
2023-03-16T18:07:52.068Z,65
2023-03-16T18:11:17.277Z,65
2023-03-16T18:14:42.511Z,66
2023-03-16T18:18:07.673Z,65
2023-03-16T18:21:32.816Z,65
2023-03-16T18:24:58.000Z,65
2023-03-16T18:28:23.207Z,65
2023-03-16T18:31:48.390Z,65
2023-03-16T18:35:13.548Z,65
2023-03-16T18:38:38.701Z,64
2023-03-16T18:42:03.860Z,65
2023-03-16T18:45:29.277Z,64
2023-03-16T18:48:54.209Z,63
2023-03-16T18:52:19.361Z,63
2023-03-16T18:55:44.512Z,63
2023-03-16T18:59:09.619Z,63
2023-03-16T19:02:34.758Z,63
2023-03-16T19:06:00.064Z,64
2023-03-16T19:09:25.216Z,62
2023-03-16T19:12:50.371Z,62
2023-03-16T19:16:15.563Z,62
2023-03-16T19:19:40.655Z,61
2023-03-16T19:23:05.806Z,61
2023-03-16T19:26:30.948Z,62
2023-03-16T19:29:56.075Z,61
2023-03-16T19:33:21.236Z,61
2023-03-16T19:36:46.485Z,62
2023-03-16T19:40:11.715Z,61
2023-03-16T19:43:36.933Z,63
2023-03-16T19:47:02.117Z,62
2023-03-16T19:50:27.345Z,61
2023-03-16T19:53:52.561Z,61
2023-03-16T19:57:17.796Z,60
2023-03-16T20:00:42.985Z,61
2023-03-16T20:04:08.163Z,61
2023-03-16T20:07:33.330Z,62
2023-03-16T20:10:58.469Z,61
2023-03-16T20:14:23.632Z,61
2023-03-16T20:17:48.794Z,61
2023-03-16T20:21:13.983Z,61
2023-03-16T20:24:39.166Z,62
2023-03-16T20:28:04.386Z,61
2023-03-16T20:31:29.623Z,61
2023-03-16T20:34:54.778Z,61
2023-03-16T20:38:19.967Z,61
2023-03-16T20:41:45.157Z,61
2023-03-16T20:45:11.853Z,62
2023-03-16T20:48:35.579Z,62
2023-03-16T20:52:00.766Z,62
2023-03-16T20:55:25.924Z,62
2023-03-16T20:58:51.061Z,62
2023-03-16T21:02:16.240Z,62
2023-03-16T21:05:41.405Z,62
2023-03-16T21:09:06.524Z,62
2023-03-16T21:12:31.748Z,61
2023-03-16T21:15:57.017Z,62
2023-03-16T21:19:22.133Z,63
2023-03-16T21:22:47.389Z,63
2023-03-16T21:26:12.566Z,63
2023-03-16T21:29:37.763Z,62
2023-03-16T21:33:03.041Z,62
2023-03-16T21:36:28.139Z,62
2023-03-16T21:39:53.380Z,62
2023-03-16T21:43:18.535Z,63
2023-03-16T21:46:43.717Z,64
2023-03-16T21:50:08.903Z,64
2023-03-16T21:53:34.022Z,63
2023-03-16T21:56:59.202Z,64
2023-03-16T22:00:24.383Z,63
2023-03-16T22:03:51.124Z,65
2023-03-16T22:07:14.712Z,63
2023-03-16T22:10:39.886Z,63
2023-03-16T22:14:05.106Z,63
2023-03-16T22:17:30.273Z,63
2023-03-16T22:20:55.447Z,63
2023-03-16T22:24:20.658Z,63
2023-03-16T22:27:45.811Z,62
2023-03-16T22:31:11.031Z,63
2023-03-16T22:34:36.141Z,62
2023-03-16T22:38:01.299Z,62
2023-03-16T22:41:26.468Z,61
2023-03-16T22:44:51.643Z,61
2023-03-16T22:48:16.834Z,60
2023-03-16T22:51:41.942Z,61
2023-03-16T22:55:07.123Z,61
2023-03-16T22:58:32.284Z,59
2023-03-16T23:01:57.400Z,59
2023-03-16T23:05:22.583Z,59
2023-03-16T23:08:47.691Z,59
2023-03-16T23:12:12.880Z,59
2023-03-16T23:15:38.069Z,58
2023-03-16T23:19:05.906Z,57
2023-03-16T23:22:28.501Z,58
2023-03-16T23:25:53.643Z,58
2023-03-16T23:29:18.818Z,58
2023-03-16T23:32:44.058Z,58
2023-03-16T23:36:09.166Z,58
2023-03-16T23:39:34.880Z,57
2023-03-16T23:43:00.031Z,57
2023-03-16T23:46:25.290Z,58
2023-03-16T23:49:50.447Z,57
2023-03-16T23:53:15.670Z,57
2023-03-16T23:56:40.867Z,57
